Terminal Aerodrome Forecast
Issued by NWS

Home | Current Version | Previous Version | Text Only | Print | Product List | Glossary On
Versions: 1 2 3 4 5 6 7 8 9 10 11 12 13 14 15 16 17 18 19 20 21 22 23 24 25 26 27 28 29 30 31 32 33 34 35 36 37 38 39 40 41 42 43 44 45 46 47 48 49 50
000
FTUS43 KDMX 281738
TAFFOD
TAF
KFOD 281738Z 2818/2918 12015G20KT 6SM -RA BR SCT006 OVC012
      TEMPO 2819/2822 09012G17KT BKN007
     FM282200 03006KT P6SM OVC007
     FM290800 01004KT 2SM BR OVC005
     FM291300 03005KT 5SM BR BKN012
     FM291500 04005KT P6SM SCT008 BKN025=

USA.gov is the U.S. government's official web portal to all federal, state and local government web resources and services.